createdAt,value
2022-10-17T00:01:00.984Z,11.50
2022-10-17T00:03:28.689Z,11.50
2022-10-17T00:05:57.876Z,11.50
2022-10-17T00:08:27.689Z,11.40
2022-10-17T00:11:04.225Z,11.40
2022-10-17T00:16:04.453Z,11.30
2022-10-17T00:18:32.943Z,11.30
2022-10-17T00:21:00.695Z,11.20
2022-10-17T00:23:28.764Z,11.20
2022-10-17T00:26:05.908Z,11.20
2022-10-17T00:28:36.705Z,11.10
2022-10-17T00:31:06.241Z,11.10
2022-10-17T00:33:35.422Z,11.00
2022-10-17T00:36:13.701Z,11.00
2022-10-17T00:38:43.053Z,11.00
2022-10-17T00:41:15.008Z,11.00
2022-10-17T00:43:56.030Z,10.90
2022-10-17T00:46:28.453Z,10.90
2022-10-17T00:48:57.396Z,10.90
2022-10-17T00:51:46.498Z,10.80
2022-10-17T00:54:17.216Z,10.70
2022-10-17T00:56:48.223Z,10.70
2022-10-17T00:59:22.703Z,10.70
2022-10-17T01:02:00.871Z,10.60
2022-10-17T01:04:28.490Z,10.60
2022-10-17T01:06:56.206Z,10.60
2022-10-17T01:09:27.496Z,10.60
2022-10-17T01:12:05.054Z,10.50
2022-10-17T01:15:18.998Z,10.50
2022-10-17T01:18:12.077Z,10.50
2022-10-17T01:21:01.193Z,10.50
2022-10-17T01:23:53.613Z,10.40
2022-10-17T01:26:50.942Z,10.30
2022-10-17T01:29:45.918Z,10.30
2022-10-17T01:32:18.954Z,10.30
2022-10-17T01:35:07.027Z,10.20
2022-10-17T01:37:46.857Z,10.20
2022-10-17T01:40:22.969Z,10.20
2022-10-17T01:43:32.378Z,10.20
2022-10-17T01:46:12.705Z,10.20
2022-10-17T01:48:42.939Z,10.20
2022-10-17T01:51:34.057Z,10.20
2022-10-17T01:54:23.987Z,10.20
2022-10-17T01:57:08.302Z,10.20
2022-10-17T01:59:41.305Z,10.20
2022-10-17T02:02:09.728Z,10.20
2022-10-17T02:04:37.707Z,10.20
2022-10-17T02:07:09.935Z,10.20
2022-10-17T02:09:40.644Z,10.20
2022-10-17T02:12:28.595Z,10.20
2022-10-17T02:15:30.122Z,10.10
2022-10-17T02:18:28.008Z,10.10
2022-10-17T02:21:09.921Z,10.10
2022-10-17T02:23:44.530Z,10.10
2022-10-17T02:26:38.348Z,10.10
2022-10-17T02:29:22.646Z,10.10
2022-10-17T02:32:13.383Z,10.10
2022-10-17T02:34:52.502Z,10.00
2022-10-17T02:37:25.546Z,10.00
2022-10-17T02:39:57.017Z,9.90
2022-10-17T02:42:26.389Z,10.00
2022-10-17T02:44:55.214Z,10.00
2022-10-17T02:47:28.882Z,9.90
2022-10-17T02:49:58.655Z,9.90
2022-10-17T02:52:51.040Z,9.80
2022-10-17T02:55:23.429Z,9.90
2022-10-17T02:57:53.530Z,9.90
2022-10-17T03:00:22.804Z,9.90
2022-10-17T03:02:53.752Z,9.80
2022-10-17T03:05:29.557Z,9.70
2022-10-17T03:08:05.918Z,9.70
2022-10-17T03:10:33.406Z,9.70
2022-10-17T03:13:00.839Z,9.70
2022-10-17T03:15:31.862Z,9.60
2022-10-17T03:17:59.878Z,9.60
2022-10-17T03:20:27.300Z,9.50
2022-10-17T03:22:54.710Z,9.60
2022-10-17T03:25:22.564Z,9.40
2022-10-17T03:27:50.096Z,9.50
2022-10-17T03:30:17.447Z,9.50
2022-10-17T03:32:44.882Z,9.60
2022-10-17T03:35:15.253Z,9.50
2022-10-17T03:37:47.020Z,9.50
2022-10-17T03:40:18.752Z,9.50
2022-10-17T03:42:49.202Z,9.60
2022-10-17T03:45:17.061Z,9.50
2022-10-17T03:47:46.085Z,9.60
2022-10-17T03:50:13.668Z,9.60
2022-10-17T03:52:48.677Z,9.60
2022-10-17T03:55:16.049Z,9.60
2022-10-17T03:57:45.590Z,9.50
2022-10-17T04:00:15.421Z,9.60
2022-10-17T04:02:44.977Z,9.60
2022-10-17T04:05:18.738Z,9.60
2022-10-17T04:07:47.794Z,9.60
2022-10-17T04:10:17.496Z,9.60
2022-10-17T04:12:44.973Z,9.60
2022-10-17T04:15:12.979Z,9.60
2022-10-17T04:17:40.850Z,9.60
2022-10-17T04:20:08.818Z,9.60
2022-10-17T04:22:36.277Z,9.60
2022-10-17T04:25:04.551Z,9.60
2022-10-17T04:27:36.800Z,9.50
2022-10-17T04:30:05.771Z,9.60
2022-10-17T04:32:38.780Z,9.50
2022-10-17T04:35:13.831Z,9.50
2022-10-17T04:37:46.573Z,9.50
2022-10-17T04:40:18.730Z,9.40
2022-10-17T04:42:47.219Z,9.30
2022-10-17T04:45:18.807Z,9.40
2022-10-17T04:47:48.745Z,9.30
2022-10-17T04:50:16.128Z,9.20
2022-10-17T04:52:52.614Z,9.30
2022-10-17T04:55:22.434Z,9.30
2022-10-17T04:57:49.717Z,9.20
2022-10-17T05:00:21.491Z,9.20
2022-10-17T05:02:49.213Z,9.20
2022-10-17T05:05:16.712Z,9.20
2022-10-17T05:07:46.517Z,9.20
2022-10-17T05:10:18.741Z,9.20
2022-10-17T05:12:49.752Z,9.20
2022-10-17T05:15:19.330Z,9.20
2022-10-17T05:17:46.755Z,9.20
2022-10-17T05:20:14.453Z,9.20
2022-10-17T05:22:42.454Z,9.30
2022-10-17T05:25:11.844Z,9.30
2022-10-17T05:27:39.233Z,9.40
2022-10-17T05:30:08.224Z,9.40
2022-10-17T05:32:37.072Z,9.40
2022-10-17T05:35:05.127Z,9.40
2022-10-17T05:37:33.435Z,9.40
2022-10-17T05:40:03.385Z,9.40
2022-10-17T05:42:33.029Z,9.40
2022-10-17T05:45:03.001Z,9.40
2022-10-17T05:47:31.556Z,9.40
2022-10-17T05:49:59.460Z,9.40
2022-10-17T05:52:33.441Z,9.40
2022-10-17T05:55:27.153Z,9.40
2022-10-17T05:57:54.628Z,9.50
2022-10-17T06:00:23.961Z,9.50
2022-10-17T06:02:58.653Z,9.50
2022-10-17T06:05:28.387Z,9.50
2022-10-17T06:07:59.619Z,9.60
2022-10-17T06:10:31.093Z,9.60
2022-10-17T06:12:59.207Z,9.60
2022-10-17T06:15:26.906Z,9.70
2022-10-17T06:18:06.114Z,9.70
2022-10-17T06:20:37.227Z,9.90
2022-10-17T06:23:05.252Z,9.90
2022-10-17T06:25:48.268Z,10.00
2022-10-17T06:28:15.748Z,10.00
2022-10-17T06:30:46.436Z,10.10
2022-10-17T06:33:16.888Z,10.20
2022-10-17T06:35:57.159Z,10.30
2022-10-17T06:38:25.884Z,10.30
2022-10-17T06:41:08.053Z,10.30
2022-10-17T06:43:39.742Z,10.40
2022-10-17T06:46:26.972Z,10.50
2022-10-17T06:48:59.429Z,10.50
2022-10-17T06:51:40.517Z,10.60
2022-10-17T06:54:10.647Z,10.70
2022-10-17T06:57:06.324Z,10.80
2022-10-17T07:00:00.939Z,10.80
2022-10-17T07:02:37.165Z,10.80
2022-10-17T07:05:06.002Z,10.90
2022-10-17T07:07:44.125Z,10.90
2022-10-17T07:10:16.006Z,10.90
2022-10-17T07:12:45.923Z,11.10
2022-10-17T07:15:16.416Z,11.10
2022-10-17T07:17:43.770Z,11.10
2022-10-17T07:20:11.411Z,11.20
2022-10-17T07:22:39.374Z,11.30
2022-10-17T07:25:08.377Z,11.30
2022-10-17T07:27:52.162Z,11.30
2022-10-17T07:33:08.727Z,11.40
2022-10-17T07:35:38.531Z,11.40
2022-10-17T07:38:06.129Z,11.40
2022-10-17T07:40:33.941Z,11.40
2022-10-17T07:43:01.667Z,11.40
2022-10-17T07:45:30.341Z,11.40
2022-10-17T07:47:59.856Z,11.40
2022-10-17T07:50:27.360Z,11.50
2022-10-17T07:52:54.701Z,11.50
2022-10-17T07:55:22.079Z,11.50
2022-10-17T07:57:49.447Z,11.50
2022-10-17T08:00:16.959Z,11.50
2022-10-17T08:02:44.260Z,11.60
2022-10-17T08:05:11.974Z,11.50
2022-10-17T08:07:41.494Z,11.60
2022-10-17T08:10:10.736Z,11.70
2022-10-17T08:12:39.088Z,11.80
2022-10-17T08:15:13.076Z,12.00
2022-10-17T08:17:40.471Z,12.00
2022-10-17T08:20:08.024Z,12.10
2022-10-17T08:22:35.410Z,12.20
2022-10-17T08:25:02.706Z,12.40
2022-10-17T08:27:30.047Z,12.70
2022-10-17T08:30:00.392Z,12.80
2022-10-17T08:32:29.765Z,13.00
2022-10-17T08:34:57.253Z,13.00
2022-10-17T08:37:25.352Z,13.10
2022-10-17T08:39:52.691Z,12.90
2022-10-17T08:42:55.239Z,12.80
2022-10-17T08:45:30.247Z,13.20
2022-10-17T08:48:09.707Z,13.60
2022-10-17T08:50:51.522Z,13.90
2022-10-17T08:54:00.695Z,14.10
2022-10-17T08:56:48.107Z,14.50
2022-10-17T08:59:28.510Z,14.70
2022-10-17T09:02:20.013Z,14.90
2022-10-17T09:05:23.974Z,15.20
2022-10-17T09:08:40.910Z,15.20
2022-10-17T09:11:44.145Z,15.30
2022-10-17T09:14:44.948Z,15.30
2022-10-17T09:17:28.360Z,15.10
2022-10-17T09:20:20.271Z,15.00
2022-10-17T09:23:04.359Z,15.10
2022-10-17T09:25:43.085Z,15.30
2022-10-17T09:28:18.153Z,15.70
2022-10-17T09:30:54.379Z,16.10
2022-10-17T09:33:35.420Z,16.10
2022-10-17T09:36:16.151Z,16.20
2022-10-17T09:38:50.735Z,16.20
2022-10-17T09:41:46.791Z,16.10
2022-10-17T09:44:16.764Z,16.30
2022-10-17T09:47:07.544Z,16.50
2022-10-17T09:49:40.210Z,16.60
2022-10-17T09:52:47.666Z,17.10
2022-10-17T09:55:45.321Z,17.30
2022-10-17T09:58:13.019Z,17.40
2022-10-17T10:00:45.606Z,17.60
2022-10-17T10:03:26.606Z,18.00
2022-10-17T10:06:13.524Z,18.10
2022-10-17T10:08:54.103Z,18.50
2022-10-17T10:11:46.387Z,18.70
2022-10-17T10:14:22.571Z,18.80
2022-10-17T10:16:55.455Z,18.80
2022-10-17T10:19:36.740Z,19.10
2022-10-17T10:22:16.477Z,19.00
2022-10-17T10:24:44.159Z,19.10
2022-10-17T10:27:17.684Z,19.40
2022-10-17T10:29:55.364Z,19.50
2022-10-17T10:32:32.260Z,19.60
2022-10-17T10:35:08.904Z,19.80
2022-10-17T10:37:36.238Z,20.00
2022-10-17T10:40:06.394Z,20.30
2022-10-17T10:42:36.799Z,20.70
2022-10-17T10:45:46.933Z,21.10
2022-10-17T10:48:23.435Z,21.30
2022-10-17T10:51:08.307Z,21.40
2022-10-17T10:53:53.583Z,21.50
2022-10-17T10:56:41.714Z,22.00
2022-10-17T10:59:09.072Z,22.20
2022-10-17T11:01:45.675Z,22.10
2022-10-17T11:04:46.418Z,22.30
2022-10-17T11:07:25.497Z,22.10
2022-10-17T11:10:14.229Z,21.90
2022-10-17T11:12:51.055Z,22.30
2022-10-17T11:15:37.431Z,22.50
2022-10-17T11:18:12.214Z,22.60
2022-10-17T11:20:48.795Z,22.60
2022-10-17T11:23:28.398Z,22.90
2022-10-17T11:25:59.253Z,22.90
2022-10-17T11:28:26.906Z,23.20
2022-10-17T11:31:08.021Z,22.80
2022-10-17T11:33:47.456Z,22.40
2022-10-17T11:36:18.170Z,23.10
2022-10-17T11:38:50.527Z,23.30
2022-10-17T11:41:35.327Z,23.20
2022-10-17T11:44:20.578Z,22.40
2022-10-17T11:46:50.568Z,21.90
2022-10-17T11:49:24.236Z,22.20
2022-10-17T11:52:02.703Z,22.20
2022-10-17T11:54:51.022Z,22.00
2022-10-17T11:57:30.638Z,22.30
2022-10-17T12:00:03.433Z,22.70
2022-10-17T12:02:50.324Z,22.40
2022-10-17T12:05:20.238Z,22.20
2022-10-17T12:07:51.288Z,22.70
2022-10-17T12:10:31.863Z,23.20
2022-10-17T12:13:19.107Z,23.20
2022-10-17T12:15:46.798Z,22.30
2022-10-17T12:18:17.436Z,22.10
2022-10-17T12:20:56.855Z,21.80
2022-10-17T12:23:26.918Z,21.80
2022-10-17T12:26:03.427Z,21.70
2022-10-17T12:28:31.891Z,22.10
2022-10-17T12:30:59.107Z,22.20
2022-10-17T12:33:37.585Z,22.10
2022-10-17T12:36:17.902Z,21.90
2022-10-17T12:38:50.170Z,22.00
2022-10-17T12:41:38.643Z,22.30
2022-10-17T12:44:27.041Z,22.50
2022-10-17T12:46:57.083Z,22.40
2022-10-17T12:49:40.978Z,22.60
2022-10-17T12:52:19.841Z,22.20
2022-10-17T12:55:10.484Z,21.90
2022-10-17T12:57:36.535Z,21.30
2022-10-17T13:00:22.338Z,20.50
2022-10-17T13:02:51.930Z,20.00
2022-10-17T13:05:30.858Z,19.80
2022-10-17T13:08:00.142Z,19.90
2022-10-17T13:10:28.645Z,20.10
2022-10-17T13:13:22.820Z,20.60
2022-10-17T13:15:51.235Z,20.90
2022-10-17T13:18:19.778Z,20.90
2022-10-17T13:21:02.714Z,20.50
2022-10-17T13:23:32.377Z,20.60
2022-10-17T13:26:08.030Z,20.70
2022-10-17T13:28:39.176Z,20.90
2022-10-17T13:31:07.156Z,20.50
2022-10-17T13:33:36.212Z,20.50
2022-10-17T13:36:05.621Z,20.50
2022-10-17T13:38:35.648Z,20.60
2022-10-17T13:41:34.438Z,20.40
2022-10-17T13:43:58.728Z,20.30
2022-10-17T13:46:37.194Z,19.80
2022-10-17T13:49:21.356Z,19.40
2022-10-17T13:51:53.089Z,19.10
2022-10-17T13:54:40.514Z,18.90
2022-10-17T13:57:29.839Z,18.80
2022-10-17T13:59:58.648Z,18.70
2022-10-17T14:02:30.452Z,18.60
2022-10-17T14:05:23.126Z,18.40
2022-10-17T14:10:44.799Z,18.00
2022-10-17T14:13:19.403Z,17.60
2022-10-17T14:15:49.001Z,17.30
2022-10-17T14:18:20.723Z,17.00
2022-10-17T14:23:40.933Z,16.60
2022-10-17T14:26:12.487Z,16.40
2022-10-17T14:28:40.871Z,16.30
2022-10-17T14:31:19.932Z,16.10
2022-10-17T14:33:50.714Z,16.00
2022-10-17T14:36:20.291Z,15.90
2022-10-17T14:38:49.654Z,15.80
2022-10-17T14:41:47.715Z,15.50
2022-10-17T14:44:23.171Z,15.40
2022-10-17T14:46:55.630Z,15.30
2022-10-17T14:49:43.161Z,15.20
2022-10-17T14:52:15.145Z,15.00
2022-10-17T14:54:46.484Z,14.90
2022-10-17T14:57:24.528Z,14.90
2022-10-17T14:59:54.630Z,14.80
2022-10-17T15:02:27.046Z,14.70
2022-10-17T15:04:56.873Z,14.60
2022-10-17T15:07:26.469Z,14.60
2022-10-17T15:09:54.693Z,14.50
2022-10-17T15:12:23.359Z,14.40
2022-10-17T15:14:51.921Z,14.30
2022-10-17T15:17:24.443Z,14.30
2022-10-17T15:19:51.709Z,14.20
2022-10-17T15:22:19.475Z,14.20
2022-10-17T15:24:46.932Z,14.10
2022-10-17T15:27:15.500Z,14.00
2022-10-17T15:29:42.871Z,13.90
2022-10-17T15:32:10.766Z,13.90
2022-10-17T15:34:38.219Z,13.80
2022-10-17T15:37:06.441Z,13.80
2022-10-17T15:39:33.739Z,13.70
2022-10-17T15:42:00.914Z,13.60
2022-10-17T15:44:30.405Z,13.50
2022-10-17T15:46:57.949Z,13.40
2022-10-17T15:49:25.083Z,13.40
2022-10-17T15:51:55.217Z,13.30
2022-10-17T15:54:24.665Z,13.30
2022-10-17T15:56:56.254Z,13.20
2022-10-17T15:59:30.548Z,13.10
2022-10-17T16:01:58.270Z,13.10
2022-10-17T16:04:29.995Z,13.10
2022-10-17T16:06:57.482Z,13.10
2022-10-17T16:09:24.815Z,13.00
2022-10-17T16:11:54.880Z,13.00
2022-10-17T16:14:22.659Z,13.00
2022-10-17T16:16:53.445Z,13.00
2022-10-17T16:19:21.875Z,13.10
2022-10-17T16:21:49.291Z,13.00
2022-10-17T16:24:20.178Z,12.90
2022-10-17T16:26:47.679Z,12.90
2022-10-17T16:29:14.984Z,12.80
2022-10-17T16:31:44.861Z,12.80
2022-10-17T16:34:14.346Z,12.80
2022-10-17T16:36:42.613Z,12.80
2022-10-17T16:39:12.563Z,12.70
2022-10-17T16:41:40.163Z,12.60
2022-10-17T16:44:13.210Z,12.60
2022-10-17T16:46:42.498Z,12.60
2022-10-17T16:49:30.944Z,12.60
2022-10-17T16:51:58.261Z,12.60
2022-10-17T16:54:25.571Z,12.50
2022-10-17T16:56:53.087Z,12.50
2022-10-17T16:59:20.609Z,12.50
2022-10-17T17:01:48.426Z,12.50
2022-10-17T17:04:15.877Z,12.40
2022-10-17T17:09:10.750Z,12.40
2022-10-17T17:11:42.112Z,12.40
2022-10-17T17:14:10.440Z,12.30
2022-10-17T17:16:37.757Z,12.30
2022-10-17T17:19:08.136Z,12.30
2022-10-17T17:21:36.019Z,12.20
2022-10-17T17:24:04.631Z,12.20
2022-10-17T17:26:36.210Z,12.20
2022-10-17T17:29:06.083Z,12.10
2022-10-17T17:31:34.935Z,12.20
2022-10-17T17:34:03.554Z,12.10
2022-10-17T17:36:33.827Z,12.20
2022-10-17T17:39:04.347Z,12.20
2022-10-17T17:41:32.307Z,12.20
2022-10-17T17:44:03.546Z,12.20
2022-10-17T17:46:31.303Z,12.20
2022-10-17T17:48:58.964Z,12.10
2022-10-17T17:51:29.390Z,12.10
2022-10-17T17:53:59.370Z,12.10
2022-10-17T17:56:28.726Z,12.10
2022-10-17T17:58:58.477Z,12.10
2022-10-17T18:01:28.485Z,12.10
2022-10-17T18:03:59.088Z,12.00
2022-10-17T18:06:29.175Z,12.00
2022-10-17T18:09:01.572Z,12.00
2022-10-17T18:11:32.089Z,12.00
2022-10-17T18:14:05.997Z,12.00
2022-10-17T18:16:35.136Z,12.00
2022-10-17T18:19:13.278Z,12.00
2022-10-17T18:21:44.450Z,11.90
2022-10-17T18:24:12.828Z,12.00
2022-10-17T18:26:40.076Z,11.90
2022-10-17T18:29:07.539Z,11.90
2022-10-17T18:31:38.511Z,11.90
2022-10-17T18:34:06.532Z,12.00
2022-10-17T18:36:35.467Z,11.90
2022-10-17T18:39:04.189Z,11.90
2022-10-17T18:41:32.236Z,11.80
2022-10-17T18:43:59.841Z,11.80
2022-10-17T18:46:34.962Z,11.80
2022-10-17T18:49:02.774Z,11.80
2022-10-17T18:51:30.015Z,11.80
2022-10-17T18:54:04.153Z,11.80
2022-10-17T18:56:33.108Z,11.80
2022-10-17T18:59:00.496Z,11.80
2022-10-17T19:01:28.654Z,11.80
2022-10-17T19:03:59.228Z,11.80
2022-10-17T19:06:31.734Z,11.80
2022-10-17T19:09:03.669Z,11.80
2022-10-17T19:11:32.926Z,11.70
2022-10-17T19:14:03.518Z,11.80
2022-10-17T19:16:37.151Z,11.70
2022-10-17T19:19:12.057Z,11.70
2022-10-17T19:21:39.946Z,11.70
2022-10-17T19:24:17.165Z,11.60
2022-10-17T19:26:46.779Z,11.70
2022-10-17T19:29:20.908Z,11.60
2022-10-17T19:31:51.406Z,11.60
2022-10-17T19:34:18.880Z,11.60
2022-10-17T19:36:46.534Z,11.50
2022-10-17T19:39:23.063Z,11.50
2022-10-17T19:41:50.401Z,11.50
2022-10-17T19:44:17.988Z,11.50
2022-10-17T19:46:47.049Z,11.50
2022-10-17T19:49:15.189Z,11.60
2022-10-17T19:51:42.537Z,11.50
2022-10-17T19:54:12.492Z,11.50
2022-10-17T19:56:40.668Z,11.60
2022-10-17T19:59:13.262Z,11.50
2022-10-17T20:01:41.127Z,11.50
2022-10-17T20:04:11.131Z,11.40
2022-10-17T20:06:39.274Z,11.40
2022-10-17T20:09:09.790Z,11.40
2022-10-17T20:11:42.825Z,11.40
2022-10-17T20:14:19.231Z,11.40
2022-10-17T20:16:50.447Z,11.40
2022-10-17T20:19:17.810Z,11.40
2022-10-17T20:21:45.095Z,11.40
2022-10-17T20:24:15.588Z,11.40
2022-10-17T20:26:45.694Z,11.30
2022-10-17T20:29:17.359Z,11.30
2022-10-17T20:31:49.155Z,11.30
2022-10-17T20:34:18.616Z,11.30
2022-10-17T20:36:46.711Z,11.20
2022-10-17T20:39:17.037Z,11.20
2022-10-17T20:41:45.071Z,11.10
2022-10-17T20:44:13.595Z,11.00
2022-10-17T20:47:00.837Z,11.00
2022-10-17T20:49:33.549Z,10.90
2022-10-17T20:52:01.498Z,11.00
2022-10-17T20:54:31.774Z,11.00
2022-10-17T20:57:02.442Z,11.00
2022-10-17T20:59:32.726Z,11.00
2022-10-17T21:02:04.448Z,11.00
2022-10-17T21:04:47.911Z,11.00
2022-10-17T21:07:16.238Z,11.00
2022-10-17T21:09:43.718Z,10.90
2022-10-17T21:12:11.028Z,10.90
2022-10-17T21:14:40.549Z,10.90
2022-10-17T21:17:09.192Z,10.90
2022-10-17T21:19:36.435Z,10.90
2022-10-17T21:22:03.752Z,10.90
2022-10-17T21:24:33.588Z,10.90
2022-10-17T21:27:03.097Z,10.90
2022-10-17T21:29:30.758Z,10.80
2022-10-17T21:31:58.263Z,10.80
2022-10-17T21:34:25.638Z,10.80
2022-10-17T21:36:54.035Z,10.80
2022-10-17T21:39:24.297Z,10.80
2022-10-17T21:41:52.716Z,10.70
2022-10-17T21:44:25.507Z,10.70
2022-10-17T21:46:54.042Z,10.70
2022-10-17T21:49:23.297Z,10.80
2022-10-17T21:51:51.996Z,10.80
2022-10-17T21:54:20.656Z,10.70
2022-10-17T21:56:50.842Z,10.70
2022-10-17T21:59:18.216Z,10.70
2022-10-17T22:01:46.657Z,10.70
2022-10-17T22:04:16.897Z,10.70
2022-10-17T22:06:46.029Z,10.70
2022-10-17T22:09:21.289Z,10.70
2022-10-17T22:11:52.155Z,10.70
2022-10-17T22:14:21.343Z,10.70
2022-10-17T22:16:49.995Z,10.70
2022-10-17T22:19:20.812Z,10.70
2022-10-17T22:21:48.247Z,10.70
2022-10-17T22:24:17.542Z,10.70
2022-10-17T22:26:45.557Z,10.70
2022-10-17T22:29:13.349Z,10.80
2022-10-17T22:31:40.969Z,10.80
2022-10-17T22:34:08.691Z,10.80
2022-10-17T22:36:36.296Z,10.80
2022-10-17T22:39:04.598Z,10.80
2022-10-17T22:41:32.044Z,10.80
2022-10-17T22:43:59.309Z,10.80
2022-10-17T22:46:26.898Z,10.80
2022-10-17T22:48:54.212Z,10.80
2022-10-17T22:51:21.709Z,10.80
2022-10-17T22:53:48.991Z,10.80
2022-10-17T22:56:19.598Z,10.90
2022-10-17T22:58:47.983Z,10.90
2022-10-17T23:01:20.955Z,10.90
2022-10-17T23:03:48.551Z,10.90
2022-10-17T23:06:16.586Z,10.80
2022-10-17T23:08:44.264Z,10.90
2022-10-17T23:11:12.483Z,10.90
2022-10-17T23:13:41.073Z,10.90
2022-10-17T23:16:09.214Z,10.90
2022-10-17T23:18:37.938Z,11.00
2022-10-17T23:21:06.849Z,11.00
2022-10-17T23:23:34.655Z,11.00
2022-10-17T23:26:10.624Z,11.10
2022-10-17T23:28:38.285Z,11.00
2022-10-17T23:31:19.366Z,11.10
2022-10-17T23:33:48.003Z,11.10
2022-10-17T23:36:17.801Z,11.10
2022-10-17T23:38:46.936Z,11.10
2022-10-17T23:41:15.152Z,11.10
2022-10-17T23:43:43.327Z,11.10
2022-10-17T23:46:11.048Z,11.20
2022-10-17T23:48:39.433Z,11.20
2022-10-17T23:51:08.870Z,11.20
2022-10-17T23:53:40.068Z,11.20
2022-10-17T23:56:08.730Z,11.20
2022-10-17T23:58:36.488Z,11.20
